sensor_id;sensor_type;location;lat;lon;timestamp;temperature;humidity
7736;DHT22;3911;48.830;9.072;2022-08-30T00:02:03;23.90;54.90
7736;DHT22;3911;48.830;9.072;2022-08-30T00:04:30;23.90;54.80
7736;DHT22;3911;48.830;9.072;2022-08-30T00:06:56;23.90;54.80
7736;DHT22;3911;48.830;9.072;2022-08-30T00:09:24;23.90;54.70
7736;DHT22;3911;48.830;9.072;2022-08-30T00:11:52;23.90;54.50
7736;DHT22;3911;48.830;9.072;2022-08-30T00:14:19;23.90;54.50
7736;DHT22;3911;48.830;9.072;2022-08-30T00:16:46;23.80;54.40
7736;DHT22;3911;48.830;9.072;2022-08-30T00:19:12;23.90;54.50
7736;DHT22;3911;48.830;9.072;2022-08-30T00:21:39;23.80;54.40
7736;DHT22;3911;48.830;9.072;2022-08-30T00:24:06;23.80;54.40
7736;DHT22;3911;48.830;9.072;2022-08-30T00:26:32;23.80;54.40
7736;DHT22;3911;48.830;9.072;2022-08-30T00:28:59;23.80;54.40
7736;DHT22;3911;48.830;9.072;2022-08-30T00:31:25;23.80;54.40
7736;DHT22;3911;48.830;9.072;2022-08-30T00:33:53;23.80;54.50
7736;DHT22;3911;48.830;9.072;2022-08-30T00:36:20;23.80;54.60
7736;DHT22;3911;48.830;9.072;2022-08-30T00:38:47;23.70;54.50
7736;DHT22;3911;48.830;9.072;2022-08-30T00:41:14;23.70;54.50
7736;DHT22;3911;48.830;9.072;2022-08-30T00:43:41;23.70;54.60
7736;DHT22;3911;48.830;9.072;2022-08-30T00:46:07;23.70;54.60
7736;DHT22;3911;48.830;9.072;2022-08-30T00:48:35;23.70;54.60
7736;DHT22;3911;48.830;9.072;2022-08-30T00:51:02;23.70;54.60
7736;DHT22;3911;48.830;9.072;2022-08-30T00:53:30;23.70;54.50
7736;DHT22;3911;48.830;9.072;2022-08-30T00:55:55;23.70;54.50
7736;DHT22;3911;48.830;9.072;2022-08-30T00:58:24;23.60;54.30
7736;DHT22;3911;48.830;9.072;2022-08-30T01:00:51;23.60;54.20
7736;DHT22;3911;48.830;9.072;2022-08-30T01:03:17;23.60;54.10
7736;DHT22;3911;48.830;9.072;2022-08-30T01:05:44;23.60;54.10
7736;DHT22;3911;48.830;9.072;2022-08-30T01:08:10;23.60;54.10
7736;DHT22;3911;48.830;9.072;2022-08-30T01:10:37;23.60;54.10
7736;DHT22;3911;48.830;9.072;2022-08-30T01:13:05;23.60;54.00
7736;DHT22;3911;48.830;9.072;2022-08-30T01:15:33;23.60;54.00
7736;DHT22;3911;48.830;9.072;2022-08-30T01:17:59;23.60;53.90
7736;DHT22;3911;48.830;9.072;2022-08-30T01:20:28;23.60;54.00
7736;DHT22;3911;48.830;9.072;2022-08-30T01:23:04;23.50;53.90
7736;DHT22;3911;48.830;9.072;2022-08-30T01:25:29;23.50;53.90
7736;DHT22;3911;48.830;9.072;2022-08-30T01:28:03;23.50;54.00
7736;DHT22;3911;48.830;9.072;2022-08-30T01:30:28;23.50;54.00
7736;DHT22;3911;48.830;9.072;2022-08-30T01:32:57;23.50;53.90
7736;DHT22;3911;48.830;9.072;2022-08-30T01:35:21;23.50;53.70
7736;DHT22;3911;48.830;9.072;2022-08-30T01:37:48;23.50;54.00
7736;DHT22;3911;48.830;9.072;2022-08-30T01:40:15;23.50;54.00
7736;DHT22;3911;48.830;9.072;2022-08-30T01:42:41;23.50;54.00
7736;DHT22;3911;48.830;9.072;2022-08-30T01:45:08;23.40;53.80
7736;DHT22;3911;48.830;9.072;2022-08-30T01:47:35;23.40;53.80
7736;DHT22;3911;48.830;9.072;2022-08-30T01:50:04;23.40;53.80
7736;DHT22;3911;48.830;9.072;2022-08-30T01:52:30;23.40;53.70
7736;DHT22;3911;48.830;9.072;2022-08-30T01:54:56;23.40;53.80
7736;DHT22;3911;48.830;9.072;2022-08-30T01:57:23;23.40;53.90
7736;DHT22;3911;48.830;9.072;2022-08-30T01:59:50;23.40;54.00
7736;DHT22;3911;48.830;9.072;2022-08-30T02:02:20;23.30;54.00
7736;DHT22;3911;48.830;9.072;2022-08-30T02:04:46;23.40;54.10
7736;DHT22;3911;48.830;9.072;2022-08-30T02:07:13;23.30;54.10
7736;DHT22;3911;48.830;9.072;2022-08-30T02:09:41;23.30;54.20
7736;DHT22;3911;48.830;9.072;2022-08-30T02:12:07;23.30;54.20
7736;DHT22;3911;48.830;9.072;2022-08-30T02:14:34;23.30;54.20
7736;DHT22;3911;48.830;9.072;2022-08-30T02:17:00;23.30;54.30
7736;DHT22;3911;48.830;9.072;2022-08-30T02:19:28;23.30;54.30
7736;DHT22;3911;48.830;9.072;2022-08-30T02:21:54;23.30;54.30
7736;DHT22;3911;48.830;9.072;2022-08-30T02:24:21;23.20;54.10
7736;DHT22;3911;48.830;9.072;2022-08-30T02:26:48;23.20;54.10
7736;DHT22;3911;48.830;9.072;2022-08-30T02:29:16;23.20;54.10
7736;DHT22;3911;48.830;9.072;2022-08-30T02:31:43;23.20;54.10
7736;DHT22;3911;48.830;9.072;2022-08-30T02:34:10;23.20;54.10
7736;DHT22;3911;48.830;9.072;2022-08-30T02:36:38;23.20;54.10
7736;DHT22;3911;48.830;9.072;2022-08-30T02:39:05;23.20;54.10
7736;DHT22;3911;48.830;9.072;2022-08-30T02:41:32;23.20;54.10
7736;DHT22;3911;48.830;9.072;2022-08-30T02:43:58;23.20;54.10
7736;DHT22;3911;48.830;9.072;2022-08-30T02:46:26;23.20;54.10
7736;DHT22;3911;48.830;9.072;2022-08-30T02:48:53;23.20;54.20
7736;DHT22;3911;48.830;9.072;2022-08-30T02:51:19;23.10;54.00
7736;DHT22;3911;48.830;9.072;2022-08-30T02:53:46;23.10;54.00
7736;DHT22;3911;48.830;9.072;2022-08-30T02:56:13;23.10;54.00
7736;DHT22;3911;48.830;9.072;2022-08-30T02:58:39;23.10;54.00
7736;DHT22;3911;48.830;9.072;2022-08-30T03:01:07;23.10;54.80
7736;DHT22;3911;48.830;9.072;2022-08-30T03:03:34;23.10;54.00
7736;DHT22;3911;48.830;9.072;2022-08-30T03:06:01;23.10;54.00
7736;DHT22;3911;48.830;9.072;2022-08-30T03:08:29;23.10;53.90
7736;DHT22;3911;48.830;9.072;2022-08-30T03:10:57;23.00;53.80
7736;DHT22;3911;48.830;9.072;2022-08-30T03:13:24;23.00;53.80
7736;DHT22;3911;48.830;9.072;2022-08-30T03:15:51;23.00;53.80
7736;DHT22;3911;48.830;9.072;2022-08-30T03:18:18;23.00;53.70
7736;DHT22;3911;48.830;9.072;2022-08-30T03:20:44;23.00;53.70
7736;DHT22;3911;48.830;9.072;2022-08-30T03:23:11;23.00;53.70
7736;DHT22;3911;48.830;9.072;2022-08-30T03:25:37;23.00;53.60
7736;DHT22;3911;48.830;9.072;2022-08-30T03:28:05;23.00;54.40
7736;DHT22;3911;48.830;9.072;2022-08-30T03:30:32;23.00;53.70
7736;DHT22;3911;48.830;9.072;2022-08-30T03:33:00;23.00;53.60
7736;DHT22;3911;48.830;9.072;2022-08-30T03:35:27;23.00;53.70
7736;DHT22;3911;48.830;9.072;2022-08-30T03:37:53;23.00;53.70
7736;DHT22;3911;48.830;9.072;2022-08-30T03:40:20;22.90;53.70
7736;DHT22;3911;48.830;9.072;2022-08-30T03:42:46;23.00;53.80
7736;DHT22;3911;48.830;9.072;2022-08-30T03:45:14;22.90;53.60
7736;DHT22;3911;48.830;9.072;2022-08-30T03:47:40;22.90;53.60
7736;DHT22;3911;48.830;9.072;2022-08-30T03:50:07;22.90;53.60
7736;DHT22;3911;48.830;9.072;2022-08-30T03:52:34;22.90;53.60
7736;DHT22;3911;48.830;9.072;2022-08-30T03:55:02;22.90;53.70
7736;DHT22;3911;48.830;9.072;2022-08-30T03:57:28;22.90;53.60
7736;DHT22;3911;48.830;9.072;2022-08-30T03:59:55;22.90;53.60
7736;DHT22;3911;48.830;9.072;2022-08-30T04:02:21;22.80;53.50
7736;DHT22;3911;48.830;9.072;2022-08-30T04:04:48;23.00;53.70
7736;DHT22;3911;48.830;9.072;2022-08-30T04:07:15;22.90;53.40
7736;DHT22;3911;48.830;9.072;2022-08-30T04:09:41;22.90;53.50
7736;DHT22;3911;48.830;9.072;2022-08-30T04:12:09;23.00;53.80
7736;DHT22;3911;48.830;9.072;2022-08-30T04:14:36;23.10;53.50
7736;DHT22;3911;48.830;9.072;2022-08-30T04:17:03;23.30;53.60
7736;DHT22;3911;48.830;9.072;2022-08-30T04:19:31;23.40;53.50
7736;DHT22;3911;48.830;9.072;2022-08-30T04:21:58;23.40;53.50
7736;DHT22;3911;48.830;9.072;2022-08-30T04:24:25;23.50;53.60
7736;DHT22;3911;48.830;9.072;2022-08-30T04:26:52;23.40;53.50
7736;DHT22;3911;48.830;9.072;2022-08-30T04:29:19;23.50;53.60
7736;DHT22;3911;48.830;9.072;2022-08-30T04:31:45;23.50;53.70
7736;DHT22;3911;48.830;9.072;2022-08-30T04:34:13;23.50;53.70
7736;DHT22;3911;48.830;9.072;2022-08-30T04:36:41;23.50;53.70
7736;DHT22;3911;48.830;9.072;2022-08-30T04:39:07;23.50;53.70
7736;DHT22;3911;48.830;9.072;2022-08-30T04:41:36;23.60;53.80
7736;DHT22;3911;48.830;9.072;2022-08-30T04:44:00;23.60;53.80
7736;DHT22;3911;48.830;9.072;2022-08-30T04:46:28;23.60;53.80
7736;DHT22;3911;48.830;9.072;2022-08-30T04:48:54;23.60;53.90
7736;DHT22;3911;48.830;9.072;2022-08-30T04:51:21;23.60;54.80
7736;DHT22;3911;48.830;9.072;2022-08-30T04:53:48;23.50;55.60
7736;DHT22;3911;48.830;9.072;2022-08-30T04:56:17;23.40;54.90
7736;DHT22;3911;48.830;9.072;2022-08-30T04:58:44;23.40;55.60
7736;DHT22;3911;48.830;9.072;2022-08-30T05:01:13;23.50;55.40
7736;DHT22;3911;48.830;9.072;2022-08-30T05:03:40;23.50;54.90
7736;DHT22;3911;48.830;9.072;2022-08-30T05:06:09;23.50;54.80
7736;DHT22;3911;48.830;9.072;2022-08-30T05:08:35;23.50;54.80
7736;DHT22;3911;48.830;9.072;2022-08-30T05:11:02;23.50;54.80
7736;DHT22;3911;48.830;9.072;2022-08-30T05:13:28;23.50;54.70
7736;DHT22;3911;48.830;9.072;2022-08-30T05:15:55;23.50;54.60
7736;DHT22;3911;48.830;9.072;2022-08-30T05:18:23;23.50;54.60
7736;DHT22;3911;48.830;9.072;2022-08-30T05:21:01;23.60;54.70
7736;DHT22;3911;48.830;9.072;2022-08-30T05:23:18;23.60;54.70
7736;DHT22;3911;48.830;9.072;2022-08-30T05:25:45;23.60;54.70
7736;DHT22;3911;48.830;9.072;2022-08-30T05:28:12;23.60;54.60
7736;DHT22;3911;48.830;9.072;2022-08-30T05:30:39;23.60;55.20
7736;DHT22;3911;48.830;9.072;2022-08-30T05:33:07;23.70;55.50
7736;DHT22;3911;48.830;9.072;2022-08-30T05:35:33;23.60;55.40
7736;DHT22;3911;48.830;9.072;2022-08-30T05:38:01;23.70;55.40
7736;DHT22;3911;48.830;9.072;2022-08-30T05:40:28;23.80;55.60
7736;DHT22;3911;48.830;9.072;2022-08-30T05:42:55;23.80;55.60
7736;DHT22;3911;48.830;9.072;2022-08-30T05:45:23;23.80;55.70
7736;DHT22;3911;48.830;9.072;2022-08-30T05:47:50;23.80;55.80
7736;DHT22;3911;48.830;9.072;2022-08-30T05:50:18;23.80;55.90
7736;DHT22;3911;48.830;9.072;2022-08-30T05:52:44;23.80;55.90
7736;DHT22;3911;48.830;9.072;2022-08-30T05:55:11;23.80;55.80
7736;DHT22;3911;48.830;9.072;2022-08-30T05:57:38;23.80;55.60
7736;DHT22;3911;48.830;9.072;2022-08-30T06:00:08;23.80;55.60
7736;DHT22;3911;48.830;9.072;2022-08-30T06:02:33;23.80;55.60
7736;DHT22;3911;48.830;9.072;2022-08-30T06:05:01;23.80;56.30
7736;DHT22;3911;48.830;9.072;2022-08-30T06:07:27;23.90;55.60
7736;DHT22;3911;48.830;9.072;2022-08-30T06:09:55;23.90;55.60
7736;DHT22;3911;48.830;9.072;2022-08-30T06:12:22;23.90;55.60
7736;DHT22;3911;48.830;9.072;2022-08-30T06:14:50;23.90;55.60
7736;DHT22;3911;48.830;9.072;2022-08-30T06:17:17;23.90;55.60
7736;DHT22;3911;48.830;9.072;2022-08-30T06:19:43;23.90;55.60
7736;DHT22;3911;48.830;9.072;2022-08-30T06:22:11;23.90;55.60
7736;DHT22;3911;48.830;9.072;2022-08-30T06:24:38;23.90;55.50
7736;DHT22;3911;48.830;9.072;2022-08-30T06:27:05;23.90;55.50
7736;DHT22;3911;48.830;9.072;2022-08-30T06:29:31;23.90;56.10
7736;DHT22;3911;48.830;9.072;2022-08-30T06:31:58;23.90;56.20
7736;DHT22;3911;48.830;9.072;2022-08-30T06:34:26;23.90;56.80
7736;DHT22;3911;48.830;9.072;2022-08-30T06:36:53;23.90;56.80
7736;DHT22;3911;48.830;9.072;2022-08-30T06:39:21;23.90;57.40
7736;DHT22;3911;48.830;9.072;2022-08-30T06:41:48;23.90;56.70
7736;DHT22;3911;48.830;9.072;2022-08-30T06:44:15;23.90;56.70
7736;DHT22;3911;48.830;9.072;2022-08-30T06:46:41;23.90;56.50
7736;DHT22;3911;48.830;9.072;2022-08-30T06:49:08;23.90;56.30
7736;DHT22;3911;48.830;9.072;2022-08-30T06:51:35;23.80;56.00
7736;DHT22;3911;48.830;9.072;2022-08-30T06:54:01;23.70;56.10
7736;DHT22;3911;48.830;9.072;2022-08-30T06:56:28;23.60;55.70
7736;DHT22;3911;48.830;9.072;2022-08-30T06:58:56;23.60;55.70
7736;DHT22;3911;48.830;9.072;2022-08-30T07:01:24;23.60;55.60
7736;DHT22;3911;48.830;9.072;2022-08-30T07:03:50;23.60;56.40
7736;DHT22;3911;48.830;9.072;2022-08-30T07:06:18;23.60;55.60
7736;DHT22;3911;48.830;9.072;2022-08-30T07:08:45;23.60;55.60
7736;DHT22;3911;48.830;9.072;2022-08-30T07:11:12;23.60;55.50
7736;DHT22;3911;48.830;9.072;2022-08-30T07:13:38;23.60;55.60
7736;DHT22;3911;48.830;9.072;2022-08-30T07:16:09;23.60;55.60
7736;DHT22;3911;48.830;9.072;2022-08-30T07:18:35;23.70;56.00
7736;DHT22;3911;48.830;9.072;2022-08-30T07:21:12;23.70;55.90
7736;DHT22;3911;48.830;9.072;2022-08-30T07:23:37;23.80;56.00
7736;DHT22;3911;48.830;9.072;2022-08-30T07:26:05;23.90;56.10
7736;DHT22;3911;48.830;9.072;2022-08-30T07:28:32;23.90;55.90
7736;DHT22;3911;48.830;9.072;2022-08-30T07:30:58;23.90;55.90
7736;DHT22;3911;48.830;9.072;2022-08-30T07:33:25;24.00;55.90
7736;DHT22;3911;48.830;9.072;2022-08-30T07:35:51;23.90;56.10
7736;DHT22;3911;48.830;9.072;2022-08-30T07:38:19;23.90;56.30
7736;DHT22;3911;48.830;9.072;2022-08-30T07:40:47;23.90;56.30
7736;DHT22;3911;48.830;9.072;2022-08-30T07:43:14;24.00;56.40
7736;DHT22;3911;48.830;9.072;2022-08-30T07:45:40;24.00;56.40
7736;DHT22;3911;48.830;9.072;2022-08-30T07:48:07;24.00;56.50
7736;DHT22;3911;48.830;9.072;2022-08-30T07:50:34;24.00;56.60
7736;DHT22;3911;48.830;9.072;2022-08-30T07:53:01;24.00;56.70
7736;DHT22;3911;48.830;9.072;2022-08-30T07:55:27;24.00;56.70
7736;DHT22;3911;48.830;9.072;2022-08-30T07:57:55;24.00;57.20
7736;DHT22;3911;48.830;9.072;2022-08-30T08:00:22;24.00;56.40
7736;DHT22;3911;48.830;9.072;2022-08-30T08:02:49;24.10;56.40
7736;DHT22;3911;48.830;9.072;2022-08-30T08:05:17;24.10;56.40
7736;DHT22;3911;48.830;9.072;2022-08-30T08:07:44;24.10;56.60
7736;DHT22;3911;48.830;9.072;2022-08-30T08:10:11;24.10;56.50
7736;DHT22;3911;48.830;9.072;2022-08-30T08:12:38;24.10;56.50
7736;DHT22;3911;48.830;9.072;2022-08-30T08:15:05;24.10;56.50
7736;DHT22;3911;48.830;9.072;2022-08-30T08:17:32;24.10;56.50
7736;DHT22;3911;48.830;9.072;2022-08-30T08:19:59;24.10;56.70
7736;DHT22;3911;48.830;9.072;2022-08-30T08:22:26;24.10;56.70
7736;DHT22;3911;48.830;9.072;2022-08-30T08:24:52;24.10;56.60
7736;DHT22;3911;48.830;9.072;2022-08-30T08:27:20;24.20;56.70
7736;DHT22;3911;48.830;9.072;2022-08-30T08:29:47;24.10;56.60
7736;DHT22;3911;48.830;9.072;2022-08-30T08:32:14;24.10;56.70
7736;DHT22;3911;48.830;9.072;2022-08-30T08:34:41;24.10;56.70
7736;DHT22;3911;48.830;9.072;2022-08-30T08:37:07;24.20;56.70
7736;DHT22;3911;48.830;9.072;2022-08-30T08:39:34;24.20;56.80
7736;DHT22;3911;48.830;9.072;2022-08-30T08:42:15;24.20;56.80
7736;DHT22;3911;48.830;9.072;2022-08-30T08:45:03;24.20;56.70
7736;DHT22;3911;48.830;9.072;2022-08-30T08:47:29;24.20;56.70
7736;DHT22;3911;48.830;9.072;2022-08-30T08:49:56;24.20;56.90
7736;DHT22;3911;48.830;9.072;2022-08-30T08:52:24;24.20;57.00
7736;DHT22;3911;48.830;9.072;2022-08-30T08:54:57;24.20;56.80
7736;DHT22;3911;48.830;9.072;2022-08-30T08:57:23;24.20;57.00
7736;DHT22;3911;48.830;9.072;2022-08-30T08:59:49;24.20;56.90
7736;DHT22;3911;48.830;9.072;2022-08-30T09:02:24;24.20;57.00
7736;DHT22;3911;48.830;9.072;2022-08-30T09:04:50;24.20;56.90
7736;DHT22;3911;48.830;9.072;2022-08-30T09:07:19;24.20;56.90
7736;DHT22;3911;48.830;9.072;2022-08-30T09:09:43;24.20;56.90
7736;DHT22;3911;48.830;9.072;2022-08-30T09:12:10;24.20;56.90
7736;DHT22;3911;48.830;9.072;2022-08-30T09:14:42;24.20;56.90
7736;DHT22;3911;48.830;9.072;2022-08-30T09:17:09;24.20;56.90
7736;DHT22;3911;48.830;9.072;2022-08-30T09:19:40;24.20;56.90
7736;DHT22;3911;48.830;9.072;2022-08-30T09:22:38;24.20;56.80
7736;DHT22;3911;48.830;9.072;2022-08-30T09:25:06;24.20;56.90
7736;DHT22;3911;48.830;9.072;2022-08-30T09:27:34;24.20;56.80
7736;DHT22;3911;48.830;9.072;2022-08-30T09:30:04;24.20;56.80
7736;DHT22;3911;48.830;9.072;2022-08-30T09:32:31;24.30;57.10
7736;DHT22;3911;48.830;9.072;2022-08-30T09:34:56;24.30;57.10
7736;DHT22;3911;48.830;9.072;2022-08-30T09:37:27;24.30;57.40
7736;DHT22;3911;48.830;9.072;2022-08-30T09:39:52;24.30;57.40
7736;DHT22;3911;48.830;9.072;2022-08-30T09:42:20;24.30;57.30
7736;DHT22;3911;48.830;9.072;2022-08-30T09:44:46;24.30;57.20
7736;DHT22;3911;48.830;9.072;2022-08-30T09:47:21;24.30;57.40
7736;DHT22;3911;48.830;9.072;2022-08-30T09:49:46;24.30;57.20
7736;DHT22;3911;48.830;9.072;2022-08-30T09:52:41;24.40;57.30
7736;DHT22;3911;48.830;9.072;2022-08-30T09:55:26;24.40;57.30
7736;DHT22;3911;48.830;9.072;2022-08-30T09:58:19;24.40;57.00
7736;DHT22;3911;48.830;9.072;2022-08-30T10:00:51;24.40;56.90
7736;DHT22;3911;48.830;9.072;2022-08-30T10:03:27;24.40;57.10
7736;DHT22;3911;48.830;9.072;2022-08-30T10:06:26;24.40;57.00
7736;DHT22;3911;48.830;9.072;2022-08-30T10:08:45;24.40;57.30
7736;DHT22;3911;48.830;9.072;2022-08-30T10:19:04;24.40;57.20
7736;DHT22;3911;48.830;9.072;2022-08-30T10:21:32;24.40;57.20
7736;DHT22;3911;48.830;9.072;2022-08-30T10:24:04;24.40;57.20
7736;DHT22;3911;48.830;9.072;2022-08-30T10:26:31;24.40;57.20
7736;DHT22;3911;48.830;9.072;2022-08-30T10:29:03;24.40;57.10
7736;DHT22;3911;48.830;9.072;2022-08-30T10:31:32;24.40;57.30
7736;DHT22;3911;48.830;9.072;2022-08-30T10:34:00;24.40;57.50
7736;DHT22;3911;48.830;9.072;2022-08-30T10:36:30;24.40;57.50
7736;DHT22;3911;48.830;9.072;2022-08-30T10:38:53;24.40;57.60
7736;DHT22;3911;48.830;9.072;2022-08-30T10:41:23;24.40;57.70
7736;DHT22;3911;48.830;9.072;2022-08-30T10:44:01;24.40;57.70
7736;DHT22;3911;48.830;9.072;2022-08-30T10:46:38;24.40;57.70
7736;DHT22;3911;48.830;9.072;2022-08-30T10:49:03;24.40;57.70
7736;DHT22;3911;48.830;9.072;2022-08-30T10:51:35;24.50;57.80
7736;DHT22;3911;48.830;9.072;2022-08-30T10:54:00;24.40;57.70
7736;DHT22;3911;48.830;9.072;2022-08-30T10:56:25;24.50;57.70
7736;DHT22;3911;48.830;9.072;2022-08-30T10:58:52;24.50;57.80
7736;DHT22;3911;48.830;9.072;2022-08-30T11:01:32;24.50;57.70
7736;DHT22;3911;48.830;9.072;2022-08-30T11:07:10;24.50;57.70
7736;DHT22;3911;48.830;9.072;2022-08-30T11:12:12;24.50;57.50
7736;DHT22;3911;48.830;9.072;2022-08-30T11:14:39;24.60;58.40
7736;DHT22;3911;48.830;9.072;2022-08-30T11:17:04;24.50;57.60
7736;DHT22;3911;48.830;9.072;2022-08-30T11:19:37;24.60;57.60
7736;DHT22;3911;48.830;9.072;2022-08-30T11:22:21;24.60;57.60
7736;DHT22;3911;48.830;9.072;2022-08-30T11:24:57;24.60;57.60
7736;DHT22;3911;48.830;9.072;2022-08-30T11:27:47;24.60;57.40
7736;DHT22;3911;48.830;9.072;2022-08-30T11:33:28;24.60;57.40
7736;DHT22;3911;48.830;9.072;2022-08-30T11:35:52;24.60;57.40
7736;DHT22;3911;48.830;9.072;2022-08-30T11:39:07;24.70;57.50
7736;DHT22;3911;48.830;9.072;2022-08-30T11:41:29;24.70;57.50
7736;DHT22;3911;48.830;9.072;2022-08-30T11:43:53;24.70;57.50
7736;DHT22;3911;48.830;9.072;2022-08-30T11:46:34;24.70;57.40
7736;DHT22;3911;48.830;9.072;2022-08-30T11:49:44;24.70;57.10
7736;DHT22;3911;48.830;9.072;2022-08-30T11:52:08;24.70;57.40
7736;DHT22;3911;48.830;9.072;2022-08-30T11:57:40;24.70;57.30
7736;DHT22;3911;48.830;9.072;2022-08-30T12:00:27;24.80;57.50
7736;DHT22;3911;48.830;9.072;2022-08-30T12:02:54;24.80;57.50
7736;DHT22;3911;48.830;9.072;2022-08-30T12:05:47;24.80;57.30
7736;DHT22;3911;48.830;9.072;2022-08-30T12:11:01;24.80;57.40
7736;DHT22;3911;48.830;9.072;2022-08-30T12:16:19;24.80;57.30
7736;DHT22;3911;48.830;9.072;2022-08-30T12:18:48;24.80;57.20
7736;DHT22;3911;48.830;9.072;2022-08-30T12:21:30;24.90;57.90
7736;DHT22;3911;48.830;9.072;2022-08-30T12:24:16;24.80;57.10
7736;DHT22;3911;48.830;9.072;2022-08-30T12:26:40;24.90;57.40
7736;DHT22;3911;48.830;9.072;2022-08-30T12:29:12;24.90;57.30
7736;DHT22;3911;48.830;9.072;2022-08-30T12:31:54;24.90;57.10
7736;DHT22;3911;48.830;9.072;2022-08-30T12:34:30;24.90;57.00
7736;DHT22;3911;48.830;9.072;2022-08-30T12:37:02;24.90;57.00
7736;DHT22;3911;48.830;9.072;2022-08-30T12:39:28;24.90;56.80
7736;DHT22;3911;48.830;9.072;2022-08-30T12:41:55;25.10;57.20
7736;DHT22;3911;48.830;9.072;2022-08-30T12:44:23;25.10;57.10
7736;DHT22;3911;48.830;9.072;2022-08-30T12:46:51;25.20;57.10
7736;DHT22;3911;48.830;9.072;2022-08-30T12:49:17;25.40;57.00
7736;DHT22;3911;48.830;9.072;2022-08-30T12:51:44;25.40;56.70
7736;DHT22;3911;48.830;9.072;2022-08-30T12:54:15;25.40;56.40
7736;DHT22;3911;48.830;9.072;2022-08-30T12:56:45;25.40;56.30
7736;DHT22;3911;48.830;9.072;2022-08-30T12:59:22;25.40;56.40
7736;DHT22;3911;48.830;9.072;2022-08-30T13:01:37;25.50;55.90
7736;DHT22;3911;48.830;9.072;2022-08-30T13:04:12;25.40;56.40
7736;DHT22;3911;48.830;9.072;2022-08-30T13:06:40;25.40;56.70
7736;DHT22;3911;48.830;9.072;2022-08-30T13:09:04;25.30;56.70
7736;DHT22;3911;48.830;9.072;2022-08-30T13:11:31;25.30;56.80
7736;DHT22;3911;48.830;9.072;2022-08-30T13:16:37;25.40;56.80
7736;DHT22;3911;48.830;9.072;2022-08-30T13:21:50;25.60;57.00
7736;DHT22;3911;48.830;9.072;2022-08-30T13:24:15;25.70;56.10
7736;DHT22;3911;48.830;9.072;2022-08-30T13:26:42;25.80;56.10
7736;DHT22;3911;48.830;9.072;2022-08-30T13:29:13;25.80;56.20
7736;DHT22;3911;48.830;9.072;2022-08-30T13:31:35;25.70;56.30
7736;DHT22;3911;48.830;9.072;2022-08-30T13:34:02;25.80;56.30
7736;DHT22;3911;48.830;9.072;2022-08-30T13:36:31;25.80;56.20
7736;DHT22;3911;48.830;9.072;2022-08-30T13:38:56;25.80;56.10
7736;DHT22;3911;48.830;9.072;2022-08-30T13:41:23;25.90;56.10
7736;DHT22;3911;48.830;9.072;2022-08-30T13:43:50;26.20;56.20
7736;DHT22;3911;48.830;9.072;2022-08-30T13:46:18;26.30;55.30
7736;DHT22;3911;48.830;9.072;2022-08-30T13:48:45;26.50;55.00
7736;DHT22;3911;48.830;9.072;2022-08-30T13:51:12;26.60;54.60
7736;DHT22;3911;48.830;9.072;2022-08-30T13:53:40;26.60;54.50
7736;DHT22;3911;48.830;9.072;2022-08-30T13:56:06;26.60;54.50
7736;DHT22;3911;48.830;9.072;2022-08-30T13:58:33;26.60;54.60
7736;DHT22;3911;48.830;9.072;2022-08-30T14:00:59;26.60;54.50
7736;DHT22;3911;48.830;9.072;2022-08-30T14:03:28;26.60;54.70
7736;DHT22;3911;48.830;9.072;2022-08-30T14:05:55;26.50;54.80
7736;DHT22;3911;48.830;9.072;2022-08-30T14:08:23;26.60;54.80
7736;DHT22;3911;48.830;9.072;2022-08-30T14:10:49;26.60;54.80
7736;DHT22;3911;48.830;9.072;2022-08-30T14:13:15;26.70;54.70
7736;DHT22;3911;48.830;9.072;2022-08-30T14:15:42;26.60;54.70
7736;DHT22;3911;48.830;9.072;2022-08-30T14:18:09;26.70;54.60
7736;DHT22;3911;48.830;9.072;2022-08-30T14:20:35;26.70;54.40
7736;DHT22;3911;48.830;9.072;2022-08-30T14:23:02;26.80;54.30
7736;DHT22;3911;48.830;9.072;2022-08-30T14:25:29;26.80;54.30
7736;DHT22;3911;48.830;9.072;2022-08-30T14:27:56;26.80;54.30
7736;DHT22;3911;48.830;9.072;2022-08-30T14:30:23;26.80;54.40
7736;DHT22;3911;48.830;9.072;2022-08-30T14:32:50;26.80;54.30
7736;DHT22;3911;48.830;9.072;2022-08-30T14:35:17;26.70;54.40
7736;DHT22;3911;48.830;9.072;2022-08-30T14:37:44;26.70;54.30
7736;DHT22;3911;48.830;9.072;2022-08-30T14:40:11;26.60;54.70
7736;DHT22;3911;48.830;9.072;2022-08-30T14:42:37;26.50;54.90
7736;DHT22;3911;48.830;9.072;2022-08-30T14:45:04;26.60;55.00
7736;DHT22;3911;48.830;9.072;2022-08-30T14:47:31;26.60;54.40
7736;DHT22;3911;48.830;9.072;2022-08-30T14:49:58;26.50;55.10
7736;DHT22;3911;48.830;9.072;2022-08-30T14:52:26;26.40;55.30
7736;DHT22;3911;48.830;9.072;2022-08-30T14:54:53;26.20;55.60
7736;DHT22;3911;48.830;9.072;2022-08-30T14:57:20;26.20;55.80
7736;DHT22;3911;48.830;9.072;2022-08-30T14:59:47;26.20;55.70
7736;DHT22;3911;48.830;9.072;2022-08-30T15:02:15;26.40;55.50
7736;DHT22;3911;48.830;9.072;2022-08-30T15:04:41;26.30;55.40
7736;DHT22;3911;48.830;9.072;2022-08-30T15:07:09;26.50;55.20
7736;DHT22;3911;48.830;9.072;2022-08-30T15:09:36;26.50;55.20
7736;DHT22;3911;48.830;9.072;2022-08-30T15:12:03;26.50;55.20
7736;DHT22;3911;48.830;9.072;2022-08-30T15:14:30;26.40;55.20
7736;DHT22;3911;48.830;9.072;2022-08-30T15:16:57;26.30;55.60
7736;DHT22;3911;48.830;9.072;2022-08-30T15:19:24;26.10;56.00
7736;DHT22;3911;48.830;9.072;2022-08-30T15:21:52;25.90;56.40
7736;DHT22;3911;48.830;9.072;2022-08-30T15:24:20;25.90;56.40
7736;DHT22;3911;48.830;9.072;2022-08-30T15:26:45;25.80;56.60
7736;DHT22;3911;48.830;9.072;2022-08-30T15:29:13;25.80;56.70
7736;DHT22;3911;48.830;9.072;2022-08-30T15:31:39;25.80;56.80
7736;DHT22;3911;48.830;9.072;2022-08-30T15:34:06;25.70;56.70
7736;DHT22;3911;48.830;9.072;2022-08-30T15:36:32;25.70;56.80
7736;DHT22;3911;48.830;9.072;2022-08-30T15:38:59;25.70;57.10
7736;DHT22;3911;48.830;9.072;2022-08-30T15:41:26;25.70;57.80
7736;DHT22;3911;48.830;9.072;2022-08-30T15:43:55;25.70;57.00
7736;DHT22;3911;48.830;9.072;2022-08-30T15:46:23;25.70;57.00
7736;DHT22;3911;48.830;9.072;2022-08-30T15:48:48;25.80;57.10
7736;DHT22;3911;48.830;9.072;2022-08-30T15:51:15;25.90;56.70
7736;DHT22;3911;48.830;9.072;2022-08-30T15:53:42;26.00;56.50
7736;DHT22;3911;48.830;9.072;2022-08-30T15:56:09;25.90;56.60
7736;DHT22;3911;48.830;9.072;2022-08-30T15:58:37;26.00;56.50
7736;DHT22;3911;48.830;9.072;2022-08-30T16:01:03;26.00;56.50
7736;DHT22;3911;48.830;9.072;2022-08-30T16:03:30;26.00;56.50
7736;DHT22;3911;48.830;9.072;2022-08-30T16:05:56;26.00;56.60
7736;DHT22;3911;48.830;9.072;2022-08-30T16:08:23;25.90;57.40
7736;DHT22;3911;48.830;9.072;2022-08-30T16:10:50;25.90;56.80
7736;DHT22;3911;48.830;9.072;2022-08-30T16:13:16;25.80;57.00
7736;DHT22;3911;48.830;9.072;2022-08-30T16:15:43;25.80;56.70
7736;DHT22;3911;48.830;9.072;2022-08-30T16:18:10;25.70;57.20
7736;DHT22;3911;48.830;9.072;2022-08-30T16:20:36;25.70;57.30
7736;DHT22;3911;48.830;9.072;2022-08-30T16:23:03;25.80;57.00
7736;DHT22;3911;48.830;9.072;2022-08-30T16:25:31;25.80;57.00
7736;DHT22;3911;48.830;9.072;2022-08-30T16:27:57;25.80;57.00
7736;DHT22;3911;48.830;9.072;2022-08-30T16:30:25;25.80;57.20
7736;DHT22;3911;48.830;9.072;2022-08-30T16:32:52;25.80;57.10
7736;DHT22;3911;48.830;9.072;2022-08-30T16:35:19;25.80;57.20
7736;DHT22;3911;48.830;9.072;2022-08-30T16:37:46;25.80;57.20
7736;DHT22;3911;48.830;9.072;2022-08-30T16:40:13;25.80;57.20